Terminal Aerodrome Forecast
Issued by NWS

Home | Current Version | Previous Version | Text Only | Print | Product List | Glossary On
Versions: 1 2 3 4 5 6 7 8 9 10 11 12 13 14 15 16 17 18
118
FTUS43 KABR 302325
TAFATY
TAF
KATY 302325Z 3100/3124 17011KT P6SM FEW040
     FM310800 15008KT P6SM VCTS BKN080CB BKN250
     FM310900 16008KT P6SM BKN200
     FM311500 16013KT P6SM SCT150=

USA.gov is the U.S. government's official web portal to all federal, state and local government web resources and services.